createdAt,value
2022-09-30T00:00:57.703Z,46.70
2022-09-30T00:03:59.282Z,46.80
2022-09-30T00:07:01.464Z,46.70
2022-09-30T00:10:03.468Z,46.60
2022-09-30T00:13:04.915Z,46.50
2022-09-30T00:16:06.761Z,46.60
2022-09-30T00:19:08.460Z,46.70
2022-09-30T00:22:10.659Z,46.60
2022-09-30T00:25:12.070Z,46.70
2022-09-30T00:28:13.411Z,46.20
2022-09-30T00:31:16.811Z,46.70
2022-09-30T00:34:18.774Z,46.50
2022-09-30T00:37:20.925Z,46.50
2022-09-30T00:40:22.466Z,46.70
2022-09-30T00:43:41.400Z,46.60
2022-09-30T00:46:44.991Z,46.40
2022-09-30T00:49:46.675Z,46.60
2022-09-30T00:52:51.623Z,46.80
2022-09-30T00:55:58.504Z,46.60
2022-09-30T00:59:04.854Z,46.50
2022-09-30T01:02:10.916Z,46.40
2022-09-30T01:05:12.791Z,46.30
2022-09-30T01:08:20.745Z,46.50
2022-09-30T01:11:22.456Z,46.30
2022-09-30T01:14:26.976Z,46.20
2022-09-30T01:17:39.293Z,46.20
2022-09-30T01:20:58.562Z,46.60
2022-09-30T01:24:16.877Z,46.30
2022-09-30T01:27:32.458Z,46.10
2022-09-30T01:30:47.954Z,46.10
2022-09-30T01:33:56.779Z,46.10
2022-09-30T01:37:07.629Z,46.00
2022-09-30T01:40:21.823Z,46.10
2022-09-30T01:43:32.556Z,45.90
2022-09-30T01:46:43.284Z,46.10
2022-09-30T01:49:49.446Z,46.20
2022-09-30T01:52:58.050Z,46.60
2022-09-30T01:56:05.194Z,46.00
2022-09-30T01:59:12.120Z,46.20
2022-09-30T02:02:20.337Z,46.10
2022-09-30T02:05:28.567Z,45.80
2022-09-30T02:08:38.443Z,46.50
2022-09-30T02:11:44.820Z,46.20
2022-09-30T02:14:51.115Z,45.80
2022-09-30T02:17:59.573Z,45.80
2022-09-30T02:21:04.838Z,45.80
2022-09-30T02:24:09.649Z,45.50
2022-09-30T02:27:17.465Z,45.50
2022-09-30T02:30:19.381Z,45.50
2022-09-30T02:33:30.573Z,45.50
2022-09-30T02:36:39.613Z,45.20
2022-09-30T02:39:48.565Z,45.40
2022-09-30T02:42:50.376Z,45.20
2022-09-30T02:46:03.207Z,45.20
2022-09-30T02:49:09.919Z,45.00
2022-09-30T02:52:22.173Z,45.10
2022-09-30T02:55:31.363Z,45.10
2022-09-30T02:58:35.723Z,45.40
2022-09-30T03:01:41.157Z,44.80
2022-09-30T03:04:45.525Z,44.80
2022-09-30T03:07:50.609Z,44.70
2022-09-30T03:10:52.537Z,44.80
2022-09-30T03:14:16.699Z,44.80
2022-09-30T03:17:34.992Z,44.60
2022-09-30T03:20:47.073Z,44.70
2022-09-30T03:24:14.253Z,44.80
2022-09-30T03:27:22.885Z,45.20
2022-09-30T03:30:26.357Z,45.00
2022-09-30T03:33:38.167Z,45.10
2022-09-30T03:36:47.529Z,44.90
2022-09-30T03:39:59.049Z,44.80
2022-09-30T03:43:04.500Z,44.90
2022-09-30T03:46:15.483Z,45.20
2022-09-30T03:49:22.300Z,59.20
2022-09-30T03:52:25.642Z,44.80
2022-09-30T03:55:27.951Z,44.90
2022-09-30T03:58:29.838Z,44.50
2022-09-30T04:01:31.229Z,44.80
2022-09-30T04:04:32.629Z,44.50
2022-09-30T04:07:34.752Z,44.60
2022-09-30T04:10:40.835Z,44.60
2022-09-30T04:13:42.253Z,44.60
2022-09-30T04:16:43.725Z,44.50
2022-09-30T04:19:45.190Z,44.60
2022-09-30T04:22:47.116Z,44.50
2022-09-30T04:25:52.558Z,44.50
2022-09-30T04:28:57.370Z,44.20
2022-09-30T04:31:58.875Z,44.40
2022-09-30T04:35:00.332Z,44.50
2022-09-30T04:38:06.093Z,44.50
2022-09-30T04:41:15.405Z,44.30
2022-09-30T04:44:16.806Z,44.50
2022-09-30T04:47:18.227Z,44.40
2022-09-30T04:50:19.718Z,44.30
2022-09-30T04:53:21.499Z,44.40
2022-09-30T04:56:23.577Z,44.30
2022-09-30T04:59:24.982Z,44.40
2022-09-30T05:02:26.311Z,44.40
2022-09-30T05:05:27.837Z,44.50
2022-09-30T05:08:31.415Z,44.40
2022-09-30T05:11:41.557Z,44.70
2022-09-30T05:14:43.168Z,44.40
2022-09-30T05:17:47.629Z,44.40
2022-09-30T05:20:50.323Z,44.40
2022-09-30T05:23:53.542Z,44.10
2022-09-30T05:26:55.013Z,44.00
2022-09-30T05:29:56.243Z,44.20
2022-09-30T05:32:57.636Z,44.50
2022-09-30T05:35:59.990Z,44.10
2022-09-30T05:39:02.090Z,44.40
2022-09-30T05:42:03.910Z,44.40
2022-09-30T05:45:06.564Z,44.30
2022-09-30T05:48:08.612Z,44.00
2022-09-30T05:51:10.044Z,44.20
2022-09-30T05:54:11.995Z,43.90
2022-09-30T05:57:13.356Z,44.00
2022-09-30T06:00:15.375Z,44.30
2022-09-30T06:03:17.849Z,43.90
2022-09-30T06:06:20.419Z,43.70
2022-09-30T06:09:22.796Z,44.00
2022-09-30T06:12:28.143Z,43.70
2022-09-30T06:15:29.853Z,44.70
2022-09-30T06:18:31.414Z,43.80
2022-09-30T06:21:32.718Z,43.60
2022-09-30T06:24:34.808Z,44.10
2022-09-30T06:27:37.338Z,43.80
2022-09-30T06:30:38.750Z,43.90
2022-09-30T06:33:41.680Z,43.70
2022-09-30T06:36:43.142Z,43.80
2022-09-30T06:39:46.233Z,44.00
2022-09-30T06:42:47.995Z,43.90
2022-09-30T06:45:50.663Z,43.90
2022-09-30T06:49:06.219Z,43.40
2022-09-30T06:52:12.668Z,43.60
2022-09-30T06:55:14.939Z,43.90
2022-09-30T06:58:16.460Z,43.60
2022-09-30T07:01:19.890Z,43.60
2022-09-30T07:04:21.437Z,43.50
2022-09-30T07:07:22.746Z,43.20
2022-09-30T07:10:24.963Z,43.80
2022-09-30T07:13:27.017Z,43.60
2022-09-30T07:16:29.144Z,43.60
2022-09-30T07:19:31.020Z,43.70
2022-09-30T07:22:33.780Z,43.90
2022-09-30T07:25:35.862Z,44.00
2022-09-30T07:28:38.703Z,44.00
2022-09-30T07:31:40.646Z,43.70
2022-09-30T07:34:42.398Z,43.80
2022-09-30T07:37:44.829Z,43.90
2022-09-30T07:40:57.368Z,43.80
2022-09-30T07:43:59.230Z,43.80
2022-09-30T07:47:00.930Z,43.70
2022-09-30T07:50:03.322Z,43.80
2022-09-30T07:53:05.222Z,44.00
2022-09-30T07:56:08.774Z,43.70
2022-09-30T07:59:11.335Z,43.90
2022-09-30T08:02:15.838Z,44.10
2022-09-30T08:05:17.438Z,44.00
2022-09-30T08:08:19.492Z,44.00
2022-09-30T08:11:22.122Z,44.40
2022-09-30T08:14:26.044Z,44.10
2022-09-30T08:17:27.588Z,44.30
2022-09-30T08:20:31.039Z,44.40
2022-09-30T08:23:32.685Z,44.70
2022-09-30T08:26:34.950Z,45.10
2022-09-30T08:29:53.971Z,44.90
2022-09-30T08:32:58.029Z,45.10
2022-09-30T08:36:03.240Z,45.10
2022-09-30T08:39:06.261Z,45.40
2022-09-30T08:42:48.412Z,45.40
2022-09-30T08:46:01.707Z,45.70
2022-09-30T08:49:15.480Z,45.70
2022-09-30T08:52:30.326Z,45.90
2022-09-30T08:55:41.839Z,46.10
2022-09-30T08:58:46.300Z,46.30
2022-09-30T09:01:57.585Z,46.30
2022-09-30T09:05:02.197Z,46.30
2022-09-30T09:08:11.692Z,46.60
2022-09-30T09:11:23.552Z,46.80
2022-09-30T09:14:37.875Z,46.90
2022-09-30T09:18:21.498Z,46.80
2022-09-30T09:21:26.969Z,47.20
2022-09-30T09:24:37.721Z,47.20
2022-09-30T09:27:46.180Z,47.20
2022-09-30T09:30:54.027Z,47.40
2022-09-30T09:34:01.445Z,47.50
2022-09-30T09:37:13.383Z,47.70
2022-09-30T09:40:23.643Z,47.80
2022-09-30T09:43:34.848Z,48.00
2022-09-30T09:46:44.830Z,48.00
2022-09-30T09:49:55.162Z,48.00
2022-09-30T09:53:16.043Z,48.00
2022-09-30T09:56:19.315Z,48.10
2022-09-30T09:59:20.872Z,47.70
2022-09-30T10:02:25.405Z,48.00
2022-09-30T10:05:29.448Z,47.90
2022-09-30T10:08:32.648Z,48.10
2022-09-30T10:11:34.461Z,48.00
2022-09-30T10:14:45.301Z,48.30
2022-09-30T10:17:52.869Z,48.10
2022-09-30T10:20:58.301Z,48.30
2022-09-30T10:24:19.596Z,48.20
2022-09-30T10:27:30.238Z,48.20
2022-09-30T10:30:46.090Z,48.50
2022-09-30T10:33:53.822Z,48.70
2022-09-30T10:36:56.709Z,48.50
2022-09-30T10:40:01.345Z,48.50
2022-09-30T10:43:03.262Z,48.50
2022-09-30T10:46:25.212Z,48.40
2022-09-30T10:49:36.409Z,62.40
2022-09-30T10:52:46.688Z,48.50
2022-09-30T10:55:48.147Z,48.60
2022-09-30T11:02:15.240Z,48.40
2022-09-30T11:05:21.673Z,48.40
2022-09-30T11:08:30.046Z,48.60
2022-09-30T11:11:37.418Z,48.50
2022-09-30T11:14:44.461Z,48.60
2022-09-30T11:17:53.193Z,48.30
2022-09-30T11:21:01.845Z,48.30
2022-09-30T11:24:15.651Z,48.30
2022-09-30T11:27:22.362Z,48.10
2022-09-30T11:30:29.966Z,48.20
2022-09-30T11:33:42.937Z,48.30
2022-09-30T11:36:50.806Z,48.00
2022-09-30T11:40:14.316Z,48.00
2022-09-30T11:43:31.820Z,47.90
2022-09-30T11:46:57.080Z,47.80
2022-09-30T11:50:18.620Z,47.90
2022-09-30T11:53:27.221Z,47.70
2022-09-30T11:56:42.823Z,47.70
2022-09-30T11:59:48.073Z,47.50
2022-09-30T12:02:52.782Z,47.60
2022-09-30T12:05:58.186Z,47.50
2022-09-30T12:09:08.758Z,47.60
2022-09-30T12:12:16.472Z,47.40
2022-09-30T12:15:23.047Z,47.50
2022-09-30T12:18:31.672Z,47.40
2022-09-30T12:21:38.505Z,47.30
2022-09-30T12:24:43.723Z,47.20
2022-09-30T12:27:48.179Z,47.30
2022-09-30T12:31:02.902Z,47.10
2022-09-30T12:34:20.181Z,47.30
2022-09-30T12:37:34.705Z,47.20
2022-09-30T12:40:52.608Z,47.10
2022-09-30T12:44:21.812Z,47.10
2022-09-30T12:47:34.213Z,47.00
2022-09-30T12:50:43.605Z,46.70
2022-09-30T12:53:50.915Z,46.90
2022-09-30T12:56:56.108Z,47.10
2022-09-30T13:00:02.188Z,46.90
2022-09-30T13:03:07.639Z,46.90
2022-09-30T13:06:09.423Z,46.80
2022-09-30T13:09:21.712Z,46.90
2022-09-30T13:12:28.165Z,46.80
2022-09-30T13:15:44.797Z,47.30
2022-09-30T13:19:01.486Z,46.70
2022-09-30T13:22:29.805Z,46.70
2022-09-30T13:25:53.051Z,46.80
2022-09-30T13:29:30.274Z,46.70
2022-09-30T13:32:36.685Z,46.60
2022-09-30T13:35:50.323Z,46.60
2022-09-30T13:39:07.754Z,46.30
2022-09-30T13:42:16.977Z,46.20
2022-09-30T13:45:30.433Z,46.30
2022-09-30T13:48:34.858Z,46.30
2022-09-30T13:51:39.499Z,46.20
2022-09-30T13:54:46.701Z,46.20
2022-09-30T13:58:01.927Z,46.10
2022-09-30T14:01:13.279Z,46.10
2022-09-30T14:04:31.744Z,45.90
2022-09-30T14:07:44.376Z,46.20
2022-09-30T14:11:01.232Z,45.90
2022-09-30T14:14:17.960Z,45.90
2022-09-30T14:17:32.310Z,45.80
2022-09-30T14:20:46.426Z,46.00
2022-09-30T14:23:58.395Z,45.90
2022-09-30T14:27:15.810Z,45.90
2022-09-30T14:30:20.117Z,45.90
2022-09-30T14:33:27.286Z,45.90
2022-09-30T14:36:29.136Z,45.80
2022-09-30T14:39:32.349Z,46.20
2022-09-30T14:42:38.244Z,45.90
2022-09-30T14:45:42.981Z,46.00
2022-09-30T14:48:49.926Z,46.00
2022-09-30T14:51:51.460Z,46.10
2022-09-30T14:54:53.835Z,46.20
2022-09-30T14:58:12.240Z,46.00
2022-09-30T15:01:16.750Z,46.10
2022-09-30T15:04:24.530Z,45.90
2022-09-30T15:07:30.207Z,46.10
2022-09-30T15:10:31.635Z,45.90
2022-09-30T15:13:33.990Z,46.10
2022-09-30T15:16:45.352Z,46.00
2022-09-30T15:19:50.682Z,45.90
2022-09-30T15:22:53.699Z,45.90
2022-09-30T15:25:56.858Z,45.90
2022-09-30T15:28:58.407Z,46.00
2022-09-30T15:32:04.145Z,46.00
2022-09-30T15:35:11.635Z,46.00
2022-09-30T15:38:19.982Z,46.20
2022-09-30T15:41:21.577Z,46.20
2022-09-30T15:44:37.875Z,46.20
2022-09-30T15:47:54.255Z,46.30
2022-09-30T15:51:00.524Z,46.30
2022-09-30T15:54:25.679Z,46.00
2022-09-30T15:57:45.150Z,46.20
2022-09-30T16:00:47.153Z,46.40
2022-09-30T16:03:53.505Z,46.20
2022-09-30T16:06:57.316Z,46.30
2022-09-30T16:09:59.290Z,46.40
2022-09-30T16:13:01.807Z,46.30
2022-09-30T16:16:06.489Z,46.50
2022-09-30T16:19:16.819Z,46.40
2022-09-30T16:22:35.810Z,46.70
2022-09-30T16:25:37.402Z,46.40
2022-09-30T16:28:38.902Z,46.70
2022-09-30T16:31:40.543Z,46.60
2022-09-30T16:34:42.025Z,46.80
2022-09-30T16:37:44.346Z,47.00
2022-09-30T16:40:46.489Z,46.90
2022-09-30T16:43:48.500Z,47.00
2022-09-30T16:46:50.891Z,47.20
2022-09-30T16:49:52.352Z,47.30
2022-09-30T16:52:54.583Z,47.50
2022-09-30T16:55:56.224Z,47.30
2022-09-30T16:58:57.765Z,47.50
2022-09-30T17:01:59.530Z,47.60
2022-09-30T17:05:01.632Z,47.90
2022-09-30T17:08:04.289Z,47.80
2022-09-30T17:11:08.944Z,48.00
2022-09-30T17:14:10.522Z,48.00
2022-09-30T17:17:13.763Z,48.30
2022-09-30T17:20:15.634Z,48.30
2022-09-30T17:23:17.906Z,48.50
2022-09-30T17:26:19.567Z,48.40
2022-09-30T17:29:32.093Z,48.60
2022-09-30T17:32:34.249Z,48.60
2022-09-30T17:35:37.543Z,48.70
2022-09-30T17:38:39.835Z,48.80
2022-09-30T17:41:54.313Z,49.10
2022-09-30T17:44:56.655Z,49.20
2022-09-30T17:47:58.395Z,49.10
2022-09-30T17:50:59.957Z,49.20
2022-09-30T17:54:01.944Z,49.30
2022-09-30T17:57:03.683Z,49.30
2022-09-30T18:00:05.826Z,49.50
2022-09-30T18:03:08.532Z,49.50
2022-09-30T18:06:10.253Z,49.50
2022-09-30T18:09:12.401Z,49.60
2022-09-30T18:12:13.874Z,49.70
2022-09-30T18:15:15.857Z,49.80
2022-09-30T18:18:20.317Z,49.80
2022-09-30T18:21:21.759Z,50.00
2022-09-30T18:24:38.922Z,50.10
2022-09-30T18:27:43.582Z,50.10
2022-09-30T18:30:45.913Z,50.20
2022-09-30T18:33:51.491Z,50.20
2022-09-30T18:36:53.265Z,50.40
2022-09-30T18:39:55.234Z,50.40
2022-09-30T18:42:58.814Z,50.60
2022-09-30T18:46:01.039Z,50.40
2022-09-30T18:49:06.394Z,50.70
2022-09-30T18:52:07.921Z,50.50
2022-09-30T18:55:10.283Z,50.80
2022-09-30T18:58:12.234Z,50.60
2022-09-30T19:01:13.642Z,50.80
2022-09-30T19:04:15.716Z,50.80
2022-09-30T19:07:18.877Z,50.90
2022-09-30T19:10:23.625Z,51.10
2022-09-30T19:13:27.930Z,51.10
2022-09-30T19:16:34.152Z,51.10
2022-09-30T19:19:40.632Z,51.10
2022-09-30T19:22:42.414Z,51.20
2022-09-30T19:25:44.397Z,51.20
2022-09-30T19:28:46.527Z,51.30
2022-09-30T19:31:47.996Z,51.40
2022-09-30T19:35:05.634Z,51.50
2022-09-30T19:38:08.486Z,51.50
2022-09-30T19:41:11.921Z,51.60
2022-09-30T19:44:18.474Z,51.80
2022-09-30T19:47:19.914Z,51.70
2022-09-30T19:50:24.365Z,51.60
2022-09-30T19:53:30.643Z,52.00
2022-09-30T19:56:34.058Z,51.90
2022-09-30T19:59:35.529Z,51.80
2022-09-30T20:02:36.965Z,52.10
2022-09-30T20:05:39.204Z,52.20
2022-09-30T20:08:42.423Z,52.20
2022-09-30T20:11:44.588Z,52.10
2022-09-30T20:15:03.827Z,52.20
2022-09-30T20:18:05.226Z,52.20
2022-09-30T20:21:08.447Z,52.60
2022-09-30T20:24:11.479Z,52.50
2022-09-30T20:27:13.440Z,52.50
2022-09-30T20:30:15.956Z,52.70
2022-09-30T20:33:19.154Z,52.80
2022-09-30T20:36:22.004Z,53.10
2022-09-30T20:39:23.379Z,53.10
2022-09-30T20:42:32.018Z,53.30
2022-09-30T20:45:36.898Z,53.30
2022-09-30T20:48:39.518Z,53.40
2022-09-30T20:51:41.011Z,53.40
2022-09-30T20:54:42.392Z,53.80
2022-09-30T20:57:45.079Z,54.20
2022-09-30T21:00:46.638Z,54.10
2022-09-30T21:03:49.849Z,54.20
2022-09-30T21:06:51.431Z,54.50
2022-09-30T21:09:52.879Z,54.90
2022-09-30T21:12:54.799Z,55.00
2022-09-30T21:16:03.493Z,55.00
2022-09-30T21:19:04.941Z,55.10
2022-09-30T21:22:06.332Z,55.30
2022-09-30T21:25:08.404Z,55.50
2022-09-30T21:28:10.414Z,55.60
2022-09-30T21:31:16.844Z,55.90
2022-09-30T21:34:18.289Z,56.30
2022-09-30T21:37:19.649Z,56.50
2022-09-30T21:40:20.990Z,56.50
2022-09-30T21:43:22.826Z,56.50
2022-09-30T21:46:26.083Z,56.60
2022-09-30T21:49:27.724Z,71.20
2022-09-30T21:52:32.686Z,57.10
2022-09-30T21:55:34.406Z,57.40
2022-09-30T21:58:36.622Z,57.80
2022-09-30T22:01:38.480Z,57.80
2022-09-30T22:04:40.250Z,57.80
2022-09-30T22:07:41.820Z,58.90
2022-09-30T22:10:43.285Z,58.30
2022-09-30T22:13:46.267Z,58.50
2022-09-30T22:16:47.884Z,58.90
2022-09-30T22:19:50.206Z,59.00
2022-09-30T22:22:51.718Z,59.30
2022-09-30T22:25:55.869Z,59.50
2022-09-30T22:29:00.120Z,59.70
2022-09-30T22:32:02.045Z,59.70
2022-09-30T22:35:15.253Z,60.00
2022-09-30T22:38:16.756Z,59.90
2022-09-30T22:41:18.164Z,60.10
2022-09-30T22:44:20.115Z,60.30
2022-09-30T22:47:21.808Z,60.30
2022-09-30T22:50:31.769Z,60.10
2022-09-30T22:53:34.069Z,60.30
2022-09-30T22:56:40.831Z,60.50
2022-09-30T22:59:45.742Z,60.80
2022-09-30T23:02:52.075Z,60.90
2022-09-30T23:05:59.626Z,61.00
2022-09-30T23:09:03.416Z,61.20
2022-09-30T23:12:04.860Z,61.30
2022-09-30T23:15:07.068Z,61.50
2022-09-30T23:18:08.704Z,61.50
2022-09-30T23:21:12.696Z,61.40
2022-09-30T23:24:14.849Z,61.70
2022-09-30T23:27:16.254Z,61.80
2022-09-30T23:30:20.210Z,62.40
2022-09-30T23:33:21.806Z,62.40
2022-09-30T23:36:26.157Z,62.10
2022-09-30T23:39:29.817Z,62.10
2022-09-30T23:42:31.309Z,62.10
2022-09-30T23:45:33.179Z,62.60
2022-09-30T23:48:37.482Z,62.50
2022-09-30T23:51:39.124Z,62.70
2022-09-30T23:54:41.331Z,62.80
2022-09-30T23:57:45.896Z,63.00
